Decoded Metar for KGLS (GALVESTON in TX, USA) (IATA:GLS) | Meteo·Mobile Aviation Weather
aviador You're here:

KGLS Decoded Metar

GALVESTON in TX, USA
Report Time2019-03-20 22:52:00
UTC Time2019-03-20 23:13:13
Flight Rules vfr VFR
Wind170° at 11 kt
W.Decomp.*RWY 18: 10.8 kt HW 2.3 kt LCW
RWY 14: 9.7 kt HW 5.2 kt RCW
W.Rank170° ranks 1
Current wind is above 170° avg. (10.1)
Visibility9999 m
Phenomena:N/A
Clouds:N/A
Expected CloudBase > 4,800 ft AGL from Temp-Dew spread
CeilingNone
Temp19°C (ISA +4)
Dew Point07°C (46% RH)
AAT14.4°C
QNH1021 hPa
Density Alt361 ft
Elevation20 ft
Report Wrong Elevation
Raw Report
KGLS 202252Z AUTO 17011KT 10SM CLR 19/07 A3016 RMK AO2 SLP214
T01890072=

Extra information for KGLS:More info

Metar Taf Metar & Taf Last 4 Metars F.Rules Stats Wind Profile Meteogram Temp Stats Airport Information Weather charts Add Link Nearby VenuesMetar ALERT Operation Metar Decoded Social comments

AIRNAV info for KGLS